createdAt,value
2022-10-05T00:00:35.735Z,96169.31
2022-10-05T00:02:33.996Z,96171.00
2022-10-05T00:04:33.964Z,96168.59
2022-10-05T00:06:33.662Z,96166.88
2022-10-05T00:08:34.461Z,96167.19
2022-10-05T00:10:32.786Z,96164.00
2022-10-05T00:12:31.111Z,96167.00
2022-10-05T00:14:32.138Z,96169.13
2022-10-05T00:16:30.703Z,96160.91
2022-10-05T00:18:28.923Z,96162.09
2022-10-05T00:20:28.412Z,96164.38
2022-10-05T00:22:33.046Z,96159.88
2022-10-05T00:24:31.390Z,96162.28
2022-10-05T00:26:34.447Z,96163.25
2022-10-05T00:28:32.665Z,96161.56
2022-10-05T00:30:35.182Z,96157.81
2022-10-05T00:32:33.382Z,96166.22
2022-10-05T00:34:35.145Z,96157.78
2022-10-05T00:36:33.547Z,96165.09
2022-10-05T00:38:34.494Z,96161.81
2022-10-05T00:40:40.351Z,96162.66
2022-10-05T00:42:49.858Z,96162.38
2022-10-05T00:44:53.684Z,96159.66
2022-10-05T00:46:57.467Z,96171.06
2022-10-05T00:49:04.691Z,96168.44
2022-10-05T00:51:13.984Z,96172.19
2022-10-05T00:53:22.562Z,96173.13
2022-10-05T00:55:29.209Z,96169.75
2022-10-05T00:57:40.660Z,96170.03
2022-10-05T00:59:50.925Z,96176.44
2022-10-05T01:01:57.021Z,96187.97
2022-10-05T01:04:05.375Z,96177.22
2022-10-05T01:06:12.043Z,96188.06
2022-10-05T01:08:23.889Z,96183.69
2022-10-05T01:10:34.055Z,96187.25
2022-10-05T01:12:39.306Z,96180.22
2022-10-05T01:14:48.725Z,96178.22
2022-10-05T01:16:53.268Z,96181.47
2022-10-05T01:18:58.684Z,96182.59
2022-10-05T01:20:59.515Z,96184.25
2022-10-05T01:23:22.250Z,96197.63
2022-10-05T01:25:31.855Z,96195.78
2022-10-05T01:27:49.563Z,96205.25
2022-10-05T01:29:54.760Z,96207.53
2022-10-05T01:31:59.943Z,96207.59
2022-10-05T01:34:18.224Z,96212.84
2022-10-05T01:36:29.274Z,96209.38
2022-10-05T01:38:40.058Z,96218.06
2022-10-05T01:40:45.825Z,96221.97
2022-10-05T01:42:58.251Z,96224.34
2022-10-05T01:45:07.794Z,96225.72
2022-10-05T01:47:11.058Z,96232.53
2022-10-05T01:49:23.751Z,96233.06
2022-10-05T01:51:32.023Z,96244.69
2022-10-05T01:53:46.872Z,96243.78
2022-10-05T01:55:54.150Z,96248.84
2022-10-05T01:58:07.707Z,96241.22
2022-10-05T02:00:10.559Z,96241.13
2022-10-05T02:02:20.330Z,96245.78
2022-10-05T02:04:56.887Z,96246.47
2022-10-05T02:06:48.475Z,96245.47
2022-10-05T02:08:49.953Z,96242.16
2022-10-05T02:10:57.947Z,96249.34
2022-10-05T02:13:07.531Z,96238.69
2022-10-05T02:15:14.925Z,96244.94
2022-10-05T02:17:16.268Z,96251.19
2022-10-05T02:19:22.580Z,96245.94
2022-10-05T02:21:22.548Z,96245.69
2022-10-05T02:23:25.266Z,96251.53
2022-10-05T02:25:30.034Z,96252.53
2022-10-05T02:27:32.696Z,96256.50
2022-10-05T02:29:36.104Z,96258.28
2022-10-05T02:31:41.537Z,96252.00
2022-10-05T02:33:40.675Z,96249.97
2022-10-05T02:35:44.721Z,96250.91
2022-10-05T02:37:54.352Z,96249.13
2022-10-05T02:40:17.412Z,96249.72
2022-10-05T02:42:25.352Z,96240.03
2022-10-05T02:44:34.612Z,96250.25
2022-10-05T02:46:41.775Z,96249.34
2022-10-05T02:48:49.727Z,96241.41
2022-10-05T02:50:54.864Z,96243.84
2022-10-05T02:53:07.734Z,96247.31
2022-10-05T02:55:17.651Z,96240.03
2022-10-05T02:57:25.370Z,96248.31
2022-10-05T02:59:32.838Z,96247.66
2022-10-05T03:01:41.559Z,96256.53
2022-10-05T03:03:44.330Z,96256.69
2022-10-05T03:05:47.650Z,96262.59
2022-10-05T03:07:56.586Z,96262.44
2022-10-05T03:10:02.076Z,96262.44
2022-10-05T03:12:11.961Z,96253.38
2022-10-05T03:14:20.025Z,96254.22
2022-10-05T03:16:31.994Z,96266.19
2022-10-05T03:18:44.472Z,96263.81
2022-10-05T03:20:49.891Z,96268.56
2022-10-05T03:22:56.133Z,96268.22
2022-10-05T03:25:14.783Z,96272.00
2022-10-05T03:27:25.333Z,96263.41
2022-10-05T03:29:35.112Z,96279.53
2022-10-05T03:31:44.654Z,96284.75
2022-10-05T03:33:54.389Z,96284.22
2022-10-05T03:36:00.814Z,96290.53
2022-10-05T03:38:10.130Z,96291.69
2022-10-05T03:40:23.397Z,96303.38
2022-10-05T03:42:31.701Z,96294.25
2022-10-05T03:44:41.834Z,96298.38
2022-10-05T03:47:08.929Z,96307.44
2022-10-05T03:49:16.814Z,96315.47
2022-10-05T03:51:22.713Z,96304.34
2022-10-05T03:53:23.406Z,96307.78
2022-10-05T03:55:30.389Z,96315.47
2022-10-05T03:57:34.765Z,96321.53
2022-10-05T03:59:40.411Z,96332.81
2022-10-05T04:01:44.652Z,96329.50
2022-10-05T04:03:47.325Z,96320.53
2022-10-05T04:05:51.055Z,96320.03
2022-10-05T04:07:57.781Z,96322.88
2022-10-05T04:09:58.876Z,96331.00
2022-10-05T04:12:20.245Z,96326.78
2022-10-05T04:14:23.723Z,96324.38
2022-10-05T04:16:27.960Z,96330.59
2022-10-05T04:18:31.053Z,96330.66
2022-10-05T04:20:36.694Z,96337.56
2022-10-05T04:22:41.376Z,96328.97
2022-10-05T04:24:45.386Z,96333.13
2022-10-05T04:26:50.693Z,96336.44
2022-10-05T04:28:57.368Z,96337.13
2022-10-05T04:30:56.109Z,96334.00
2022-10-05T04:32:57.294Z,96340.53
2022-10-05T04:35:19.683Z,96342.84
2022-10-05T04:37:24.836Z,96342.72
2022-10-05T04:39:34.356Z,96341.25
2022-10-05T04:41:45.921Z,96348.00
2022-10-05T04:43:59.184Z,96355.63
2022-10-05T04:46:14.625Z,96349.78
2022-10-05T04:48:28.704Z,96371.63
2022-10-05T04:50:41.617Z,96366.16
2022-10-05T04:52:57.248Z,96370.25
2022-10-05T04:55:06.218Z,96369.53
2022-10-05T04:57:11.843Z,96361.66
2022-10-05T04:59:36.802Z,96364.09
2022-10-05T05:01:54.077Z,96363.44
2022-10-05T05:04:12.738Z,96363.56
2022-10-05T05:06:24.593Z,96353.63
2022-10-05T05:08:39.942Z,96354.31
2022-10-05T05:11:05.583Z,96355.44
2022-10-05T05:13:17.829Z,96362.69
2022-10-05T05:15:31.051Z,96360.38
2022-10-05T05:17:47.815Z,96358.59
2022-10-05T05:19:58.684Z,96358.69
2022-10-05T05:22:04.061Z,96354.19
2022-10-05T05:24:12.755Z,96361.59
2022-10-05T05:26:23.494Z,96356.97
2022-10-05T05:28:32.046Z,96363.88
2022-10-05T05:30:41.979Z,96363.09
2022-10-05T05:32:48.947Z,96361.09
2022-10-05T05:35:04.435Z,96358.25
2022-10-05T05:37:12.701Z,96365.72
2022-10-05T05:39:25.169Z,96359.25
2022-10-05T05:41:37.182Z,96366.59
2022-10-05T05:43:51.380Z,96365.59
2022-10-05T05:46:00.323Z,96379.09
2022-10-05T05:48:04.142Z,96374.06
2022-10-05T05:50:24.484Z,96383.16
2022-10-05T05:52:29.854Z,96381.38
2022-10-05T05:54:32.535Z,96382.53
2022-10-05T05:56:38.941Z,96380.38
2022-10-05T05:58:45.094Z,96382.06
2022-10-05T06:00:48.072Z,96390.41
2022-10-05T06:02:52.216Z,96392.94
2022-10-05T06:04:55.855Z,96383.34
2022-10-05T06:06:57.309Z,96378.66
2022-10-05T06:08:59.155Z,96388.03
2022-10-05T06:11:30.193Z,96395.09
2022-10-05T06:13:35.407Z,96398.09
2022-10-05T06:15:41.420Z,96405.50
2022-10-05T06:17:44.768Z,96396.16
2022-10-05T06:19:44.310Z,96405.75
2022-10-05T06:21:47.624Z,96404.41
2022-10-05T06:23:52.045Z,96409.53
2022-10-05T06:26:10.428Z,96410.06
2022-10-05T06:28:11.770Z,96415.34
2022-10-05T06:30:19.676Z,96419.97
2022-10-05T06:32:30.041Z,96423.03
2022-10-05T06:34:45.340Z,96430.56
2022-10-05T06:36:50.527Z,96425.69
2022-10-05T06:39:07.388Z,96429.41
2022-10-05T06:41:15.476Z,96433.91
2022-10-05T06:43:29.981Z,96434.66
2022-10-05T06:46:11.864Z,96438.38
2022-10-05T06:48:32.544Z,96450.56
2022-10-05T06:50:57.158Z,96444.56
2022-10-05T06:53:34.029Z,96447.94
2022-10-05T06:55:46.054Z,96448.56
2022-10-05T06:58:01.187Z,96462.41
2022-10-05T07:00:03.933Z,96452.88
2022-10-05T07:02:15.834Z,96452.75
2022-10-05T07:04:38.947Z,96438.84
2022-10-05T07:06:41.758Z,96437.75
2022-10-05T07:08:51.805Z,96442.78
2022-10-05T07:11:03.140Z,96435.00
2022-10-05T07:13:28.061Z,96435.34
2022-10-05T07:15:42.654Z,96436.28
2022-10-05T07:17:58.626Z,96425.88
2022-10-05T07:20:09.741Z,96428.94
2022-10-05T07:22:40.616Z,96432.50
2022-10-05T07:24:43.993Z,96438.75
2022-10-05T07:26:47.094Z,96429.31
2022-10-05T07:28:51.157Z,96431.72
2022-10-05T07:30:57.614Z,96431.22
2022-10-05T07:33:05.509Z,96428.09
2022-10-05T07:35:35.275Z,96415.72
2022-10-05T07:37:58.024Z,96422.94
2022-10-05T07:40:11.067Z,96431.09
2022-10-05T07:42:19.488Z,96421.91
2022-10-05T07:44:26.235Z,96417.72
2022-10-05T07:46:33.615Z,96430.88
2022-10-05T07:48:53.616Z,96425.56
2022-10-05T07:51:03.031Z,96431.22
2022-10-05T07:53:06.531Z,96426.19
2022-10-05T07:55:14.372Z,96434.81
2022-10-05T07:57:21.487Z,96423.63
2022-10-05T07:59:29.015Z,96431.91
2022-10-05T08:01:31.444Z,96433.69
2022-10-05T08:03:45.801Z,96437.91
2022-10-05T08:05:47.087Z,96446.25
2022-10-05T08:07:45.395Z,96436.41
2022-10-05T08:09:50.745Z,96444.66
2022-10-05T08:11:57.654Z,96444.91
2022-10-05T08:14:01.879Z,96442.03
2022-10-05T08:16:05.693Z,96438.31
2022-10-05T08:18:12.495Z,96431.88
2022-10-05T08:20:29.535Z,96436.53
2022-10-05T08:22:33.182Z,96438.06
2022-10-05T08:24:45.675Z,96447.44
2022-10-05T08:26:51.506Z,96436.91
2022-10-05T08:29:00.435Z,96446.00
2022-10-05T08:31:04.961Z,96445.38
2022-10-05T08:33:10.654Z,96452.25
2022-10-05T08:35:26.174Z,96449.88
2022-10-05T08:37:28.619Z,96447.94
2022-10-05T08:39:31.894Z,96445.50
2022-10-05T08:42:08.938Z,96448.53
2022-10-05T08:44:38.450Z,96442.94
2022-10-05T08:47:12.060Z,96440.88
2022-10-05T08:49:45.124Z,96433.41
2022-10-05T08:52:19.541Z,96438.94
2022-10-05T08:54:46.811Z,96425.81
2022-10-05T08:56:50.665Z,96424.91
2022-10-05T08:59:01.864Z,96432.25
2022-10-05T09:01:11.378Z,96425.78
2022-10-05T09:03:34.763Z,96430.78
2022-10-05T09:06:14.650Z,96437.59
2022-10-05T09:08:45.262Z,96431.16
2022-10-05T09:11:11.553Z,96426.97
2022-10-05T09:13:26.866Z,96428.75
2022-10-05T09:15:47.554Z,96420.84
2022-10-05T09:18:19.777Z,96417.81
2022-10-05T09:20:32.234Z,96419.16
2022-10-05T09:22:45.867Z,96429.09
2022-10-05T09:24:56.766Z,96427.25
2022-10-05T09:27:05.638Z,96423.97
2022-10-05T09:29:25.798Z,96418.66
2022-10-05T09:31:46.851Z,96427.06
2022-10-05T09:34:10.299Z,96415.13
2022-10-05T09:36:53.037Z,96425.56
2022-10-05T09:39:24.219Z,96421.56
2022-10-05T09:41:58.148Z,96416.66
2022-10-05T09:44:36.348Z,96415.38
2022-10-05T09:47:04.639Z,96414.13
2022-10-05T09:49:23.554Z,96413.22
2022-10-05T09:52:00.000Z,96415.34
2022-10-05T09:54:29.027Z,96411.75
2022-10-05T09:56:55.281Z,96418.22
2022-10-05T09:59:17.333Z,96412.81
2022-10-05T10:01:33.619Z,96411.47
2022-10-05T10:04:10.297Z,96416.94
2022-10-05T10:06:20.910Z,96416.19
2022-10-05T10:08:30.548Z,96408.38
2022-10-05T10:11:09.956Z,96417.31
2022-10-05T10:13:28.751Z,96411.22
2022-10-05T10:15:59.692Z,96414.13
2022-10-05T10:18:28.374Z,96417.84
2022-10-05T10:20:37.691Z,96414.94
2022-10-05T10:23:13.538Z,96415.34
2022-10-05T10:25:27.749Z,96415.91
2022-10-05T10:27:48.055Z,96414.56
2022-10-05T10:30:19.222Z,96408.66
2022-10-05T10:32:51.009Z,96407.28
2022-10-05T10:35:19.993Z,96408.25
2022-10-05T10:37:47.893Z,96398.31
2022-10-05T10:40:05.526Z,96404.13
2022-10-05T10:42:26.058Z,96393.03
2022-10-05T10:44:55.051Z,96402.22
2022-10-05T10:47:19.003Z,96397.06
2022-10-05T10:49:33.348Z,96400.47
2022-10-05T10:51:58.099Z,96393.88
2022-10-05T10:54:20.891Z,96387.88
2022-10-05T10:56:45.282Z,96392.59
2022-10-05T10:59:17.360Z,96392.47
2022-10-05T11:01:30.868Z,96383.78
2022-10-05T11:04:05.559Z,96382.59
2022-10-05T11:06:28.128Z,96376.03
2022-10-05T11:08:56.452Z,96382.34
2022-10-05T11:11:13.459Z,96367.72
2022-10-05T11:13:44.492Z,96362.88
2022-10-05T11:18:20.254Z,96359.25
2022-10-05T11:20:46.153Z,96360.09
2022-10-05T11:23:00.418Z,96354.59
2022-10-05T11:25:27.715Z,96361.91
2022-10-05T11:27:49.207Z,96340.84
2022-10-05T11:30:21.033Z,96361.47
2022-10-05T11:32:41.209Z,96352.31
2022-10-05T11:35:14.748Z,96357.41
2022-10-05T11:37:46.521Z,96342.78
2022-10-05T11:39:46.173Z,96348.50
2022-10-05T11:42:17.346Z,96346.59
2022-10-05T11:44:48.272Z,96356.22
2022-10-05T11:46:55.947Z,96342.63
2022-10-05T11:49:16.605Z,96340.34
2022-10-05T11:51:42.262Z,96336.09
2022-10-05T11:53:44.267Z,96341.13
2022-10-05T11:55:46.907Z,96334.94
2022-10-05T11:57:51.479Z,96334.09
2022-10-05T11:59:59.381Z,96317.03
2022-10-05T12:02:09.012Z,96314.16
2022-10-05T12:04:16.297Z,96316.78
2022-10-05T12:06:27.335Z,96322.69
2022-10-05T12:08:32.923Z,96319.06
2022-10-05T12:10:37.993Z,96317.81
2022-10-05T12:12:40.641Z,96311.22
2022-10-05T12:14:52.650Z,96327.78
2022-10-05T12:16:57.182Z,96323.94
2022-10-05T12:19:03.181Z,96322.56
2022-10-05T12:21:06.146Z,96315.06
2022-10-05T12:23:12.012Z,96316.53
2022-10-05T12:25:22.793Z,96326.41
2022-10-05T12:27:26.868Z,96316.47
2022-10-05T12:29:26.951Z,96319.88
2022-10-05T12:31:36.780Z,96317.97
2022-10-05T12:33:39.867Z,96318.59
2022-10-05T12:35:49.172Z,96323.31
2022-10-05T12:37:54.505Z,96326.66
2022-10-05T12:39:59.765Z,96321.81
2022-10-05T12:42:11.385Z,96321.28
2022-10-05T12:44:19.829Z,96316.25
2022-10-05T12:46:28.520Z,96309.66
2022-10-05T12:48:49.316Z,96324.09
2022-10-05T12:50:51.244Z,96323.72
2022-10-05T12:53:04.414Z,96322.88
2022-10-05T12:55:11.781Z,96319.41
2022-10-05T12:57:21.022Z,96320.88
2022-10-05T12:59:31.811Z,96312.91
2022-10-05T13:01:39.141Z,96314.59
2022-10-05T13:03:40.539Z,96318.97
2022-10-05T13:05:46.945Z,96317.53
2022-10-05T13:08:01.745Z,96323.84
2022-10-05T13:13:32.591Z,96316.75
2022-10-05T13:15:58.441Z,96309.91
2022-10-05T13:18:12.460Z,96307.84
2022-10-05T13:20:45.631Z,96306.16
2022-10-05T13:23:24.815Z,96295.97
2022-10-05T13:26:00.343Z,96292.47
2022-10-05T13:28:43.467Z,96292.31
2022-10-05T13:30:53.952Z,96289.81
2022-10-05T13:32:58.692Z,96280.00
2022-10-05T13:35:12.747Z,96295.25
2022-10-05T13:37:45.182Z,96288.31
2022-10-05T13:40:05.900Z,96279.78
2022-10-05T13:42:24.669Z,96280.25
2022-10-05T13:44:32.132Z,96280.00
2022-10-05T13:46:38.798Z,96283.53
2022-10-05T13:48:56.810Z,96282.25
2022-10-05T13:51:03.895Z,96276.66
2022-10-05T13:53:12.474Z,96282.91
2022-10-05T13:55:30.957Z,96275.41
2022-10-05T13:57:46.124Z,96273.59
2022-10-05T13:59:54.561Z,96271.13
2022-10-05T14:01:59.757Z,96275.91
2022-10-05T14:04:16.016Z,96263.63
2022-10-05T14:06:27.790Z,96269.91
2022-10-05T14:08:31.254Z,96275.72
2022-10-05T14:10:41.923Z,96265.22
2022-10-05T14:12:42.404Z,96264.78
2022-10-05T14:14:46.289Z,96274.69
2022-10-05T14:16:52.832Z,96274.69
2022-10-05T14:18:58.552Z,96270.28
2022-10-05T14:21:02.449Z,96272.28
2022-10-05T14:23:03.457Z,96273.44
2022-10-05T14:25:17.224Z,96275.97
2022-10-05T14:27:23.476Z,96272.44
2022-10-05T14:29:25.557Z,96273.53
2022-10-05T14:31:31.059Z,96270.75
2022-10-05T14:33:31.619Z,96264.44
2022-10-05T14:35:32.027Z,96269.91
2022-10-05T14:37:34.640Z,96267.94
2022-10-05T14:39:36.199Z,96268.38
2022-10-05T14:41:37.607Z,96262.53
2022-10-05T14:43:38.794Z,96267.84
2022-10-05T14:45:37.139Z,96264.19
2022-10-05T14:47:35.517Z,96264.78
2022-10-05T14:49:37.142Z,96262.25
2022-10-05T14:51:36.466Z,96264.38
2022-10-05T14:53:40.337Z,96263.00
2022-10-05T14:55:51.643Z,96266.22
2022-10-05T14:58:01.351Z,96262.19
2022-10-05T15:00:05.574Z,96266.81
2022-10-05T15:02:15.885Z,96269.31
2022-10-05T15:04:30.571Z,96268.22
2022-10-05T15:06:34.170Z,96273.13
2022-10-05T15:08:51.200Z,96272.44
2022-10-05T15:10:53.717Z,96269.94
2022-10-05T15:12:52.959Z,96271.88
2022-10-05T15:14:54.263Z,96279.16
2022-10-05T15:16:58.909Z,96280.00
2022-10-05T15:19:04.621Z,96286.31
2022-10-05T15:21:22.606Z,96288.25
2022-10-05T15:23:27.036Z,96292.44
2022-10-05T15:25:33.777Z,96290.06
2022-10-05T15:27:44.572Z,96298.97
2022-10-05T15:30:01.495Z,96295.09
2022-10-05T15:32:14.859Z,96307.09
2022-10-05T15:34:19.301Z,96302.75
2022-10-05T15:36:24.346Z,96304.03
2022-10-05T15:38:25.726Z,96305.41
2022-10-05T15:40:33.620Z,96313.78
2022-10-05T15:42:38.394Z,96315.59
2022-10-05T15:44:55.393Z,96307.31
2022-10-05T15:46:58.282Z,96307.19
2022-10-05T15:49:08.624Z,96315.00
2022-10-05T15:51:18.918Z,96319.84
2022-10-05T15:53:23.979Z,96325.66
2022-10-05T15:55:28.709Z,96330.22
2022-10-05T15:57:37.531Z,96330.31
2022-10-05T15:59:44.251Z,96332.25
2022-10-05T16:01:50.016Z,96330.38
2022-10-05T16:03:52.210Z,96336.63
2022-10-05T16:06:13.486Z,96336.47
2022-10-05T16:08:42.442Z,96342.41
2022-10-05T16:10:45.194Z,96344.03
2022-10-05T16:12:52.911Z,96345.97
2022-10-05T16:15:06.734Z,96344.56
2022-10-05T16:17:22.253Z,96347.28
2022-10-05T16:19:27.463Z,96352.84
2022-10-05T16:21:33.383Z,96360.31
2022-10-05T16:23:40.969Z,96356.25
2022-10-05T16:25:48.275Z,96366.13
2022-10-05T16:28:07.427Z,96369.72
2022-10-05T16:30:10.537Z,96379.63
2022-10-05T16:32:15.118Z,96375.81
2022-10-05T16:34:25.607Z,96379.19
2022-10-05T16:36:44.793Z,96382.72
2022-10-05T16:38:50.732Z,96389.47
2022-10-05T16:41:02.182Z,96396.97
2022-10-05T16:43:12.243Z,96393.97
2022-10-05T16:45:29.284Z,96396.84
2022-10-05T16:47:44.034Z,96396.84
2022-10-05T16:49:53.987Z,96399.72
2022-10-05T16:51:59.185Z,96398.63
2022-10-05T16:54:06.482Z,96404.75
2022-10-05T16:56:11.136Z,96398.63
2022-10-05T16:58:17.957Z,96396.72
2022-10-05T17:00:22.117Z,96403.91
2022-10-05T17:02:30.070Z,96399.59
2022-10-05T17:04:41.540Z,96406.00
2022-10-05T17:07:01.729Z,96402.38
2022-10-05T17:09:18.901Z,96402.00
2022-10-05T17:11:29.837Z,96415.00
2022-10-05T17:13:46.624Z,96405.84
2022-10-05T17:16:04.299Z,96410.06
2022-10-05T17:18:17.768Z,96413.53
2022-10-05T17:20:43.087Z,96406.72
2022-10-05T17:22:52.285Z,96412.25
2022-10-05T17:24:59.210Z,96410.81
2022-10-05T17:27:18.101Z,96412.97
2022-10-05T17:29:27.000Z,96410.69
2022-10-05T17:31:26.856Z,96418.50
2022-10-05T17:33:27.732Z,96418.28
2022-10-05T17:35:42.139Z,96414.44
2022-10-05T17:37:44.018Z,96418.28
2022-10-05T17:39:51.536Z,96412.25
2022-10-05T17:41:50.349Z,96417.06
2022-10-05T17:44:20.688Z,96421.25
2022-10-05T17:46:39.376Z,96417.63
2022-10-05T17:49:01.460Z,96420.13
2022-10-05T17:51:17.857Z,96421.44
2022-10-05T17:53:40.924Z,96425.63
2022-10-05T17:55:46.865Z,96432.75
2022-10-05T17:57:45.154Z,96432.72
2022-10-05T17:59:49.218Z,96431.69
2022-10-05T18:02:21.338Z,96438.63
2022-10-05T18:04:39.184Z,96442.44
2022-10-05T18:06:39.270Z,96443.22
2022-10-05T18:08:40.403Z,96437.66
2022-10-05T18:10:41.299Z,96447.41
2022-10-05T18:12:48.760Z,96445.69
2022-10-05T18:15:01.314Z,96452.56
2022-10-05T18:17:00.830Z,96448.78
2022-10-05T18:18:59.680Z,96448.16
2022-10-05T18:21:24.047Z,96454.38
2022-10-05T18:23:35.989Z,96448.34
2022-10-05T18:25:44.879Z,96455.00
2022-10-05T18:28:00.953Z,96447.66
2022-10-05T18:30:07.842Z,96455.56
2022-10-05T18:32:15.198Z,96456.31
2022-10-05T18:34:26.727Z,96462.75
2022-10-05T18:36:57.942Z,96465.59
2022-10-05T18:39:05.220Z,96458.66
2022-10-05T18:41:10.266Z,96461.91
2022-10-05T18:43:22.312Z,96463.22
2022-10-05T18:45:27.208Z,96463.63
2022-10-05T18:47:34.673Z,96458.78
2022-10-05T18:49:49.302Z,96460.25
2022-10-05T18:51:52.087Z,96457.59
2022-10-05T18:54:07.052Z,96463.38
2022-10-05T18:56:19.124Z,96468.88
2022-10-05T18:58:22.650Z,96467.09
2022-10-05T19:00:22.870Z,96470.56
2022-10-05T19:02:27.345Z,96475.22
2022-10-05T19:04:35.598Z,96478.75
2022-10-05T19:06:43.491Z,96473.94
2022-10-05T19:08:51.328Z,96472.13
2022-10-05T19:10:56.180Z,96473.59
2022-10-05T19:13:05.126Z,96481.63
2022-10-05T19:15:15.813Z,96479.84
2022-10-05T19:17:25.531Z,96483.09
2022-10-05T19:19:44.156Z,96486.72
2022-10-05T19:21:50.535Z,96478.69
2022-10-05T19:24:04.548Z,96477.41
2022-10-05T19:26:14.562Z,96476.75
2022-10-05T19:28:24.743Z,96474.69
2022-10-05T19:30:25.397Z,96487.84
2022-10-05T19:32:32.863Z,96494.03
2022-10-05T19:34:46.287Z,96498.13
2022-10-05T19:36:59.471Z,96494.41
2022-10-05T19:39:07.981Z,96486.81
2022-10-05T19:41:15.286Z,96503.81
2022-10-05T19:43:30.169Z,96502.34
2022-10-05T19:45:31.047Z,96502.78
2022-10-05T19:47:44.508Z,96511.53
2022-10-05T19:49:50.916Z,96508.50
2022-10-05T19:51:51.588Z,96512.47
2022-10-05T19:53:52.095Z,96510.34
2022-10-05T19:55:50.267Z,96504.63
2022-10-05T19:57:49.891Z,96502.38
2022-10-05T19:59:49.527Z,96507.44
2022-10-05T20:01:51.691Z,96511.41
2022-10-05T20:03:51.885Z,96512.72
2022-10-05T20:05:50.373Z,96515.03
2022-10-05T20:07:49.229Z,96519.66
2022-10-05T20:09:53.392Z,96511.75
2022-10-05T20:11:52.609Z,96512.44
2022-10-05T20:14:20.491Z,96511.97
2022-10-05T20:16:48.731Z,96516.81
2022-10-05T20:19:07.068Z,96513.41
2022-10-05T20:21:05.367Z,96515.19
2022-10-05T20:23:23.109Z,96505.81
2022-10-05T20:25:32.043Z,96508.25
2022-10-05T20:27:45.469Z,96505.97
2022-10-05T20:29:45.634Z,96508.78
2022-10-05T20:31:45.636Z,96516.69
2022-10-05T20:33:43.807Z,96514.53
2022-10-05T20:35:41.912Z,96516.81
2022-10-05T20:37:40.455Z,96517.19
2022-10-05T20:39:39.417Z,96518.41
2022-10-05T20:41:37.737Z,96517.84
2022-10-05T20:43:38.983Z,96516.72
2022-10-05T20:45:43.747Z,96516.91
2022-10-05T20:47:43.443Z,96513.34
2022-10-05T20:49:42.227Z,96516.91
2022-10-05T20:51:40.613Z,96522.81
2022-10-05T20:53:38.807Z,96518.97
2022-10-05T20:55:36.957Z,96519.16
2022-10-05T20:57:35.158Z,96521.78
2022-10-05T20:59:34.633Z,96515.59
2022-10-05T21:01:34.252Z,96517.09
2022-10-05T21:03:33.861Z,96509.22
2022-10-05T21:05:32.127Z,96514.38
2022-10-05T21:07:30.304Z,96511.66
2022-10-05T21:09:28.360Z,96511.66
2022-10-05T21:11:28.253Z,96514.28
2022-10-05T21:13:27.167Z,96515.78
2022-10-05T21:15:25.461Z,96519.16
2022-10-05T21:17:25.439Z,96513.91
2022-10-05T21:19:24.825Z,96515.34
2022-10-05T21:21:26.641Z,96515.50
2022-10-05T21:23:25.675Z,96521.13
2022-10-05T21:25:24.017Z,96512.59
2022-10-05T21:27:22.205Z,96512.03
2022-10-05T21:29:20.441Z,96518.19
2022-10-05T21:31:18.964Z,96517.94
2022-10-05T21:33:17.305Z,96516.72
2022-10-05T21:35:18.142Z,96518.41
2022-10-05T21:37:16.363Z,96517.47
2022-10-05T21:39:14.730Z,96520.38
2022-10-05T21:41:12.899Z,96514.06
2022-10-05T21:43:11.075Z,96512.75
2022-10-05T21:45:10.572Z,96516.69
2022-10-05T21:47:08.651Z,96520.53
2022-10-05T21:49:07.587Z,96518.91
2022-10-05T21:51:09.645Z,96511.88
2022-10-05T21:53:10.686Z,96521.53
2022-10-05T21:55:09.951Z,96511.44
2022-10-05T21:57:08.306Z,96510.69
2022-10-05T21:59:09.904Z,96505.63
2022-10-05T22:01:08.074Z,96511.16
2022-10-05T22:03:06.499Z,96518.41
2022-10-05T22:05:05.434Z,96507.06
2022-10-05T22:07:18.142Z,96509.97
2022-10-05T22:09:16.430Z,96508.09
2022-10-05T22:11:16.514Z,96515.13
2022-10-05T22:13:14.663Z,96512.00
2022-10-05T22:15:13.003Z,96508.53
2022-10-05T22:17:15.149Z,96506.56
2022-10-05T22:19:17.593Z,96508.34
2022-10-05T22:21:16.687Z,96508.00
2022-10-05T22:23:16.210Z,96506.97
2022-10-05T22:25:14.424Z,96510.53
2022-10-05T22:27:13.043Z,96512.41
2022-10-05T22:29:11.195Z,96506.19
2022-10-05T22:31:10.701Z,96501.41
2022-10-05T22:33:08.988Z,96513.00
2022-10-05T22:35:11.531Z,96512.41
2022-10-05T22:37:13.554Z,96508.38
2022-10-05T22:39:13.240Z,96509.22
2022-10-05T22:41:12.424Z,96509.03
2022-10-05T22:43:10.612Z,96501.19
2022-10-05T22:45:10.017Z,96504.47
2022-10-05T22:47:08.122Z,96504.34
2022-10-05T22:49:06.269Z,96501.53
2022-10-05T22:51:05.111Z,96509.91
2022-10-05T22:53:03.254Z,96502.31
2022-10-05T22:55:02.899Z,96500.88
2022-10-05T22:57:01.365Z,96500.13
2022-10-05T22:58:59.535Z,96505.94
2022-10-05T23:01:02.171Z,96498.66
2022-10-05T23:03:00.520Z,96495.78
2022-10-05T23:04:59.065Z,96491.19
2022-10-05T23:06:57.501Z,96488.56
2022-10-05T23:08:56.050Z,96491.97
2022-10-05T23:10:55.571Z,96492.34
2022-10-05T23:13:00.499Z,96491.00
2022-10-05T23:14:59.293Z,96494.81
2022-10-05T23:16:57.780Z,96491.50
2022-10-05T23:18:56.499Z,96499.94
2022-10-05T23:20:55.456Z,96494.97
2022-10-05T23:22:53.819Z,96494.97
2022-10-05T23:24:52.140Z,96496.72
2022-10-05T23:26:51.836Z,96498.44
2022-10-05T23:28:50.773Z,96513.41
2022-10-05T23:30:48.949Z,96510.38
2022-10-05T23:32:47.320Z,96506.13
2022-10-05T23:34:45.647Z,96509.75
2022-10-05T23:36:43.838Z,96508.34
2022-10-05T23:38:42.095Z,96506.91
2022-10-05T23:40:40.396Z,96507.09
2022-10-05T23:42:40.077Z,96502.16
2022-10-05T23:44:38.207Z,96509.03
2022-10-05T23:46:36.613Z,96502.00
2022-10-05T23:48:37.999Z,96500.22
2022-10-05T23:50:36.294Z,96502.84
2022-10-05T23:52:34.832Z,96503.19
2022-10-05T23:54:32.861Z,96498.34
2022-10-05T23:56:31.483Z,96500.50
2022-10-05T23:58:31.551Z,96504.19
